WetterOnline ( http://www.wetteronline.de )

Wetter aktuell Döttesfeld

Aktuelles Wetter: Bad Marienberg (555m)

6-stündlich | Neueste Meldungen
Ortszeit Temperatur Wetter
Fr, 19.10. 14:00 12.2° C bedeckt
Fr, 19.10. 8:00 8.3° C wolkig
Fr, 19.10. 2:00 8.7° C wolkenlos
Do, 18.10. 20:00 12.1° C bedeckt
Do, 18.10. 14:00 14.1° C bedeckt
Do, 18.10. 8:00 10.0° C wolkenlos
Do, 18.10. 2:00 15.9° C wolkig
Mi, 17.10. 20:00 16.8° C wolkig
Ortszeit Temperatur Wetter
Fr, 19.10. 16:30 12.9° C bedeckt
Fr, 19.10. 16:20 12.9° C bedeckt
Fr, 19.10. 16:10 12.9° C bedeckt
Fr, 19.10. 16:00 12.8° C bedeckt
Fr, 19.10. 15:50 12.8° C bedeckt
Fr, 19.10. 15:40 13.0° C bedeckt
Fr, 19.10. 15:30 13.2° C bedeckt
Fr, 19.10. 15:00 12.5° C bedeckt
Fr, 19.10. 14:30 12.5° C bedeckt
Fr, 19.10. 14:00 12.2° C bedeckt
Fr, 19.10. 13:30 12.1° C bedeckt
Ortszeit Relative Feuchte Sichtweite
Fr, 19.10. 14:00 80% 13 km
Fr, 19.10. 8:00 99% 4.4 km
Fr, 19.10. 2:00 95% 10 km
Do, 18.10. 20:00 81% 24 km
Do, 18.10. 14:00 81% 7 km
Do, 18.10. 8:00 96% 3.4 km
Do, 18.10. 2:00 61% 30 km
Mi, 17.10. 20:00 63% 30 km
Ortszeit Relative Feuchte Sichtweite
Fr, 19.10. 16:30 75% 19 km
Fr, 19.10. 16:20 75% -
Fr, 19.10. 16:10 74% -
Fr, 19.10. 16:00 75% 16 km
Fr, 19.10. 15:50 75% -
Fr, 19.10. 15:40 75% -
Fr, 19.10. 15:30 73% 16 km
Fr, 19.10. 15:00 78% 14 km
Fr, 19.10. 14:30 78% 13 km
Fr, 19.10. 14:00 80% 13 km
Fr, 19.10. 13:30 81% 12 km
Ortszeit Niederschlagsmenge Niederschlagsart
Fr, 19.10. 14:00 0.0 l/m2 in 6 Std. -
Fr, 19.10. 8:00 0.0 l/m2 in 12 Std. -
Fr, 19.10. 2:00 0.0 l/m2 in 6 Std. -
Do, 18.10. 20:00 0.0 l/m2 in 12 Std. -
Do, 18.10. 14:00 0.0 l/m2 in 6 Std. -
Do, 18.10. 8:00 0.0 l/m2 in 12 Std. -
Do, 18.10. 2:00 0.0 l/m2 in 6 Std. -
Mi, 17.10. 20:00 0.0 l/m2 in 12 Std. -
Ortszeit Niederschlagsmenge Niederschlagsart
Fr, 19.10. 16:30 0.0 l/m2 in 1 Std. -
Fr, 19.10. 16:20 keine Meldung -
Fr, 19.10. 16:10 keine Meldung -
Fr, 19.10. 16:00 0.0 l/m2 in 1 Std. -
Fr, 19.10. 15:50 keine Meldung -
Fr, 19.10. 15:40 keine Meldung -
Fr, 19.10. 15:30 0.0 l/m2 in 1 Std. -
Fr, 19.10. 15:00 0.0 l/m2 in 1 Std. -
Fr, 19.10. 14:30 0.0 l/m2 in 1 Std. -
Fr, 19.10. 14:00 0.0 l/m2 in 1 Std. -
Fr, 19.10. 13:30 0.0 l/m2 in 1 Std. -
Ortszeit Stärke Spitze Richtung
km/h Bft. km/h Grad Sektor
Fr, 19.10. 14:00 9 2 17 120° SO
Fr, 19.10. 8:00 7 2 26 110° O
Fr, 19.10. 2:00 11 2 26 40° NO
Do, 18.10. 20:00 11 2 22 20° N
Do, 18.10. 14:00 9 2 31 330° NW
Do, 18.10. 8:00 14 3 25 360° N
Do, 18.10. 2:00 7 2 11 60° NO
Mi, 17.10. 20:00 0 0 22 - -
Ortszeit Stärke Spitze Richtung
km/h Bft. km/h Grad Sektor
Fr, 19.10. 16:30 7 2 11 80° O
Fr, 19.10. 16:20 7 2 - 80° O
Fr, 19.10. 16:10 7 2 - 70° O
Fr, 19.10. 16:00 7 2 14 80° O
Fr, 19.10. 15:50 7 2 - 80° O
Fr, 19.10. 15:40 7 2 - 90° O
Fr, 19.10. 15:30 7 2 14 90° O
Fr, 19.10. 15:00 7 2 14 110° O
Fr, 19.10. 14:30 9 2 13 90° O
Fr, 19.10. 14:00 9 2 15 120° SO
Fr, 19.10. 13:30 7 2 11 120° SO
Ortszeit Untergrenze Bedeckung Gattung
total tief tief mittel hoch
Fr, 19.10. 14:00 420 m 8/8 8/8 - - -
Fr, 19.10. 8:00 240 m 6/8 6/8 - - -
Fr, 19.10. 2:00 - 0/8 0/8 - - -
Do, 18.10. 20:00 840 m 8/8 8/8 - - -
Do, 18.10. 14:00 480 m 8/8 8/8 - - -
Do, 18.10. 8:00 - 0/8 0/8 - - -
Do, 18.10. 2:00 6900 m 7/8 1/8 - - -
Mi, 17.10. 20:00 1410 m 7/8 1/8 - - -
Ortszeit Bedeckungsgrad in Achtel und Wolkenuntergrenze
Fr, 19.10. 16:30 3(570m) 8(810m)
Fr, 19.10. 16:20 3(570m) 8(810m)
Fr, 19.10. 16:10 5(600m) 8(780m)
Fr, 19.10. 16:00 1(570m) 8(750m)
Fr, 19.10. 15:50 1(570m) 8(750m)
Fr, 19.10. 15:40 1(570m) 8(780m)
Fr, 19.10. 15:30 1(570m) 8(750m)
Fr, 19.10. 15:00 5(540m) 8(690m)
Fr, 19.10. 14:30 3(480m) 8(720m)
Fr, 19.10. 14:00 1(420m) 8(660m)
Fr, 19.10. 13:30 6(450m) 8(600m)
Ortszeit Luftdruck NN (hPa) Tendenz (hPa in 3 Std.)
Fr, 19.10. 14:00 1024 - 0,5
Fr, 19.10. 8:00 1024 + 0,4
Fr, 19.10. 2:00 1024 - 0,7
Do, 18.10. 20:00 1023 + 0,5
Do, 18.10. 14:00 1022 + 0,1
Do, 18.10. 8:00 1022 + 0,7
Do, 18.10. 2:00 1020 + 0,2
Mi, 17.10. 20:00 1019 + 0,7
Ortszeit Luftdruck NN (hPa) Tendenz (hPa in 3 Std.)
Fr, 19.10. 16:30 1023 - 0,7
Fr, 19.10. 16:20 1023 keine Meldung
Fr, 19.10. 16:10 1023 keine Meldung
Fr, 19.10. 16:00 1023 - 0,6
Fr, 19.10. 15:50 1023 keine Meldung
Fr, 19.10. 15:40 1023 keine Meldung
Fr, 19.10. 15:30 1023 - 0,7
Fr, 19.10. 15:00 1023 - 0,6
Fr, 19.10. 14:30 1023 - 0,7
Fr, 19.10. 14:00 1024 - 0,5
Fr, 19.10. 13:30 1024 - 0,3
Ortszeit Schneehöhe (cm)
Fr, 19.10. 14:00 0
Fr, 19.10. 8:00 0
Fr, 19.10. 2:00 0
Do, 18.10. 20:00 0
Do, 18.10. 14:00 0
Do, 18.10. 8:00 0
Do, 18.10. 2:00 0
Mi, 17.10. 20:00 0
Ortszeit Schneehöhe (cm)
Fr, 19.10. 16:30 0
Fr, 19.10. 16:20 0
Fr, 19.10. 16:10 0
Fr, 19.10. 16:00 0
Fr, 19.10. 15:50 0
Fr, 19.10. 15:40 0
Fr, 19.10. 15:30 0
Fr, 19.10. 15:00 0
Fr, 19.10. 14:30 0
Fr, 19.10. 14:00 0
Fr, 19.10. 13:30 0
Link zu dieser Seite / Seite empfehlen

Das Wetter in ...